Time;durP1;ratioP1;P1;durP2;ratioP2;P2;SDS_P1;SDS_P2;PMS_P1;PMS_P2;Temp;Humidity;BMP_temperature;BMP_pressure;BME280_temperature;BME280_humidity;BME280_pressure;Samples;Min_cycle;Max_cycle;Signal;HPM_P1;HPM_P2
2022/03/19 00:02:25;;;;;;;;;20.80;20.20;;;;;;;;5193874;28;8794;-76
2022/03/19 00:04:56;;;;;;;;;13.80;13.60;;;;;;;;5210379;28;8770;-75
2022/03/19 00:07:28;;;;;;;;;17.40;17.40;;;;;;;;5226879;28;8794;-75
2022/03/19 00:09:59;;;;;;;;;21.00;20.80;;;;;;;;5228150;28;8840;-76
2022/03/19 00:12:30;;;;;;;;;19.00;19.00;;;;;;;;5210486;28;8892;-76
2022/03/19 00:15:02;;;;;;;;;19.40;18.80;;;;;;;;5210385;28;8994;-76
2022/03/19 00:17:33;;;;;;;;;17.40;17.20;;;;;;;;5209863;28;8828;-75
2022/03/19 00:20:22;;;;;;;;;22.00;22.00;;;;;;;;5226697;28;8778;-76
2022/03/19 00:22:54;;;;;;;;;15.40;15.00;;;;;;;;5225961;28;8802;-76
2022/03/19 00:25:44;;;;;;;;;22.20;22.20;;;;;;;;5226469;28;8806;-75
2022/03/19 00:28:18;;;;;;;;;18.60;17.80;;;;;;;;5226328;28;8789;-75
2022/03/19 00:30:50;;;;;;;;;25.20;18.20;;;;;;;;5226335;28;8870;-75
2022/03/19 00:33:22;;;;;;;;;16.60;16.20;;;;;;;;5226212;28;8875;-74
2022/03/19 00:35:54;;;;;;;;;17.20;16.60;;;;;;;;5227596;28;8808;-74
2022/03/19 00:38:25;;;;;;;;;19.60;18.80;;;;;;;;5209115;28;8834;-74
2022/03/19 00:40:56;;;;;;;;;20.00;20.00;;;;;;;;5192926;28;8840;-72
2022/03/19 00:43:28;;;;;;;;;42.00;40.40;;;;;;;;5257110;28;8853;-73
2022/03/19 00:45:59;;;;;;;;;14.20;14.20;;;;;;;;5226073;28;8793;-74
2022/03/19 00:48:31;;;;;;;;;13.40;13.40;;;;;;;;5209547;28;9516;-74
2022/03/19 00:51:02;;;;;;;;;15.80;15.60;;;;;;;;5209495;28;8797;-74
2022/03/19 00:53:34;;;;;;;;;17.60;16.60;;;;;;;;5225585;28;9500;-76
2022/03/19 00:56:05;;;;;;;;;15.20;15.20;;;;;;;;5225569;28;8907;-76
2022/03/19 00:58:36;;;;;;;;;17.20;17.20;;;;;;;;5226909;28;8826;-76
2022/03/19 01:01:08;;;;;;;;;13.20;13.20;;;;;;;;5226826;28;8802;-75
2022/03/19 01:03:39;;;;;;;;;15.40;14.80;;;;;;;;5209096;28;8822;-74
2022/03/19 01:06:11;;;;;;;;;19.60;19.40;;;;;;;;5208921;28;8812;-76
2022/03/19 01:08:42;;;;;;;;;16.60;15.40;;;;;;;;5209239;28;8882;-74
2022/03/19 01:11:14;;;;;;;;;21.60;19.80;;;;;;;;5225734;28;8794;-75
2022/03/19 01:13:45;;;;;;;;;20.20;18.80;;;;;;;;5208661;28;8789;-76
2022/03/19 01:16:18;;;;;;;;;19.20;16.60;;;;;;;;5208768;28;8813;-76
2022/03/19 01:18:50;;;;;;;;;14.40;14.00;;;;;;;;5208865;28;8944;-78
2022/03/19 01:21:21;;;;;;;;;19.80;19.80;;;;;;;;5225312;28;8810;-79
2022/03/19 01:23:52;;;;;;;;;28.40;26.80;;;;;;;;5208878;28;8781;-78
2022/03/19 01:26:24;;;;;;;;;37.00;35.40;;;;;;;;5258710;28;8801;-78
2022/03/19 01:28:55;;;;;;;;;35.00;29.80;;;;;;;;5208804;28;8801;-78
2022/03/19 01:31:45;;;;;;;;;31.60;30.40;;;;;;;;5221424;28;8871;-75
2022/03/19 01:34:36;;;;;;;;;21.80;21.80;;;;;;;;5221844;28;8821;-73
2022/03/19 01:37:07;;;;;;;;;24.00;24.00;;;;;;;;5226197;28;8817;-75
2022/03/19 01:39:39;;;;;;;;;30.00;28.20;;;;;;;;5224882;28;8828;-74
2022/03/19 01:42:10;;;;;;;;;28.40;24.80;;;;;;;;5225019;28;8782;-74
2022/03/19 01:44:41;;;;;;;;;28.00;26.20;;;;;;;;5208182;28;9646;-75
2022/03/19 01:47:12;;;;;;;;;38.40;34.60;;;;;;;;5197154;28;8822;-75
2022/03/19 01:50:03;;;;;;;;;28.20;28.00;;;;;;;;5214421;28;8879;-77
2022/03/19 01:52:35;;;;;;;;;25.60;24.00;;;;;;;;5225681;28;8863;-75
2022/03/19 01:55:06;;;;;;;;;25.20;25.00;;;;;;;;5226931;28;8794;-81
2022/03/19 01:57:40;;;;;;;;;19.00;18.60;;;;;;;;5221209;28;8792;-78
2022/03/19 02:00:16;;;;;;;;;20.00;20.00;;;;;;;;5187946;28;8790;-77
2022/03/19 02:02:48;;;;;;;;;15.40;14.80;;;;;;;;5209316;28;8806;-77
2022/03/19 02:05:20;;;;;;;;;15.80;15.80;;;;;;;;5223197;28;9548;-78
2022/03/19 02:07:52;;;;;;;;;19.00;18.80;;;;;;;;5224632;28;8796;-77
2022/03/19 02:10:24;;;;;;;;;12.00;10.80;;;;;;;;5224050;28;8801;-76
2022/03/19 02:12:56;;;;;;;;;14.20;14.20;;;;;;;;5217797;28;8790;-76
2022/03/19 02:15:27;;;;;;;;;18.00;16.00;;;;;;;;5203793;28;8792;-74
2022/03/19 02:18:16;;;;;;;;;30.80;28.20;;;;;;;;5218271;28;8833;-76
2022/03/19 02:20:51;;;;;;;;;29.50;28.50;;;;;;;;5206639;28;9500;-78
2022/03/19 02:26:30;;;;;;;;;24.60;24.00;;;;;;;;5224441;28;8821;-74
2022/03/19 02:29:02;;;;;;;;;21.60;21.20;;;;;;;;5223937;28;8797;-74
2022/03/19 02:31:33;;;;;;;;;24.00;24.00;;;;;;;;5223975;28;8794;-74
2022/03/19 02:34:08;;;;;;;;;24.00;22.20;;;;;;;;5225360;28;9521;-74
2022/03/19 02:36:42;;;;;;;;;23.40;23.40;;;;;;;;5207480;28;8813;-74
2022/03/19 02:39:16;;;;;;;;;24.20;22.00;;;;;;;;5224359;28;8789;-74
2022/03/19 02:41:50;;;;;;;;;32.20;30.00;;;;;;;;5207710;28;8912;-73
2022/03/19 02:44:21;;;;;;;;;30.00;28.40;;;;;;;;5207694;28;8824;-74
2022/03/19 02:46:53;;;;;;;;;20.60;20.60;;;;;;;;5224372;28;8786;-74
2022/03/19 02:49:24;;;;;;;;;28.80;28.40;;;;;;;;5240527;28;8778;-74
2022/03/19 02:51:56;;;;;;;;;29.80;29.80;;;;;;;;5219227;28;8788;-74
2022/03/19 02:54:29;;;;;;;;;38.60;37.20;;;;;;;;5187055;28;8939;-74
2022/03/19 02:57:18;;;;;;;;;47.40;44.60;;;;;;;;5220053;28;8820;-74
2022/03/19 02:59:49;;;;;;;;;47.20;43.20;;;;;;;;5203756;28;8967;-73
2022/03/19 03:02:21;;;;;;;;;41.60;39.80;;;;;;;;5221566;28;8841;-74
2022/03/19 03:05:12;;;;;;;;;51.60;47.40;;;;;;;;5209957;28;8795;-75
2022/03/19 03:07:43;;;;;;;;;46.20;45.00;;;;;;;;5224111;28;8791;-74
2022/03/19 03:10:16;;;;;;;;;45.80;42.80;;;;;;;;5207183;28;8795;-73
2022/03/19 03:12:47;;;;;;;;;40.80;40.00;;;;;;;;5190975;28;8816;-78
2022/03/19 03:15:18;;;;;;;;;49.00;44.80;;;;;;;;5225054;28;8793;-77
2022/03/19 03:17:50;;;;;;;;;47.80;41.00;;;;;;;;5227244;28;8802;-77
2022/03/19 03:20:21;;;;;;;;;53.00;47.80;;;;;;;;5243795;28;8929;-73
2022/03/19 03:22:53;;;;;;;;;98.50;76.25;;;;;;;;5210992;28;8808;-72
2022/03/19 03:25:24;;;;;;;;;74.60;61.80;;;;;;;;5206400;28;8820;-73
2022/03/19 03:27:55;;;;;;;;;52.60;48.20;;;;;;;;5190102;28;8792;-72
2022/03/19 03:30:26;;;;;;;;;48.80;44.00;;;;;;;;5198094;28;8793;-73
2022/03/19 03:32:57;;;;;;;;;23.80;23.80;;;;;;;;5211736;28;9485;-72
2022/03/19 03:35:29;;;;;;;;;70.00;55.20;;;;;;;;5227617;28;8829;-72
2022/03/19 03:38:00;;;;;;;;;101.33;78.67;;;;;;;;5210895;28;8844;-74
2022/03/19 03:40:31;;;;;;;;;70.80;57.20;;;;;;;;5210471;28;11576;-74
2022/03/19 03:43:02;;;;;;;;;41.20;41.20;;;;;;;;5227138;28;8820;-74
2022/03/19 03:45:33;;;;;;;;;26.50;26.50;;;;;;;;5228010;28;8784;-78
2022/03/19 03:48:04;;;;;;;;;24.20;24.20;;;;;;;;5210665;28;11519;-78
2022/03/19 03:50:36;;;;;;;;;37.80;36.80;;;;;;;;5189658;28;8796;-78
2022/03/19 03:53:08;;;;;;;;;69.60;55.40;;;;;;;;5190016;28;8877;-78
2022/03/19 03:55:39;;;;;;;;;61.60;51.80;;;;;;;;5189996;28;9539;-77
2022/03/19 03:58:11;;;;;;;;;39.20;32.80;;;;;;;;5206327;28;8824;-79
2022/03/19 04:00:42;;;;;;;;;42.00;38.20;;;;;;;;5206382;28;8804;-78
2022/03/19 04:03:13;;;;;;;;;39.40;39.00;;;;;;;;5239699;28;8789;-76
2022/03/19 04:06:03;;;;;;;;;65.80;55.20;;;;;;;;5226238;28;9581;-77
2022/03/19 04:08:33;;;;;;;;;62.50;52.75;;;;;;;;5209917;28;8813;-77
2022/03/19 04:11:05;;;;;;;;;64.00;51.80;;;;;;;;5210619;28;9489;-77
2022/03/19 04:13:36;;;;;;;;;50.75;46.25;;;;;;;;5210355;28;8782;-77
2022/03/19 04:16:07;;;;;;;;;186.25;145.75;;;;;;;;5209775;28;11507;-76
2022/03/19 04:18:38;;;;;;;;;75.80;59.80;;;;;;;;5209792;28;11570;-77
2022/03/19 04:21:28;;;;;;;;;66.00;55.60;;;;;;;;5226911;28;8796;-76
2022/03/19 04:23:59;;;;;;;;;63.20;54.00;;;;;;;;5209831;28;9657;-75
2022/03/19 04:26:30;;;;;;;;;72.25;59.00;;;;;;;;5226185;28;8813;-74
2022/03/19 04:29:01;;;;;;;;;68.25;58.00;;;;;;;;5205153;28;8784;-75
2022/03/19 04:31:33;;;;;;;;;77.60;63.60;;;;;;;;5205537;28;8784;-76
2022/03/19 04:34:04;;;;;;;;;75.60;61.40;;;;;;;;5222183;28;8804;-75
2022/03/19 04:36:54;;;;;;;;;67.40;55.80;;;;;;;;5219614;28;8803;-76
2022/03/19 04:39:25;;;;;;;;;67.20;56.80;;;;;;;;5189271;28;8799;-76
2022/03/19 04:41:56;;;;;;;;;79.00;60.60;;;;;;;;5205583;28;8978;-77
2022/03/19 04:44:27;;;;;;;;;72.60;56.60;;;;;;;;5202127;28;8813;-75
2022/03/19 04:46:58;;;;;;;;;62.80;51.20;;;;;;;;5189348;28;8910;-75
2022/03/19 04:49:30;;;;;;;;;56.20;49.00;;;;;;;;5225665;28;8828;-76
2022/03/19 04:52:01;;;;;;;;;51.20;46.00;;;;;;;;5209087;28;8828;-76
2022/03/19 04:54:32;;;;;;;;;40.80;38.60;;;;;;;;5225818;28;8836;-75
2022/03/19 04:57:03;;;;;;;;;34.80;32.20;;;;;;;;5204256;28;8804;-78
2022/03/19 04:59:34;;;;;;;;;47.00;42.40;;;;;;;;5221670;28;8796;-74
2022/03/19 05:02:06;;;;;;;;;34.20;31.80;;;;;;;;5188930;28;8796;-74
2022/03/19 05:04:37;;;;;;;;;49.60;45.00;;;;;;;;5188663;28;8803;-74
2022/03/19 05:07:08;;;;;;;;;43.60;34.40;;;;;;;;5238521;28;8794;-73
2022/03/19 05:12:32;;;;;;;;;39.40;38.60;;;;;;;;5225435;28;8770;-73
2022/03/19 05:15:22;;;;;;;;;46.60;43.80;;;;;;;;5225592;28;8798;-72
2022/03/19 05:17:53;;;;;;;;;52.00;44.00;;;;;;;;5224265;28;8879;-72
2022/03/19 05:20:24;;;;;;;;;42.20;38.60;;;;;;;;5222538;28;10401;-72
2022/03/19 05:22:55;;;;;;;;;34.40;31.80;;;;;;;;5186126;28;8785;-72
2022/03/19 05:25:26;;;;;;;;;48.60;43.80;;;;;;;;5202475;28;8839;-73
2022/03/19 05:27:57;;;;;;;;;73.40;59.80;;;;;;;;5201287;28;8816;-73
2022/03/19 05:30:47;;;;;;;;;80.80;64.00;;;;;;;;5189960;28;8885;-73
2022/03/19 05:33:18;;;;;;;;;62.60;53.00;;;;;;;;5204249;28;8808;-73
2022/03/19 05:35:50;;;;;;;;;58.00;49.20;;;;;;;;5211920;28;9598;-73
2022/03/19 05:38:21;;;;;;;;;56.40;45.00;;;;;;;;5224729;28;8828;-71
2022/03/19 05:40:52;;;;;;;;;67.80;58.00;;;;;;;;5257894;28;9644;-71
2022/03/19 05:43:23;;;;;;;;;57.60;47.60;;;;;;;;5208175;28;8810;-72
2022/03/19 05:45:56;;;;;;;;;62.40;48.40;;;;;;;;5224787;28;8786;-71
2022/03/19 05:48:27;;;;;;;;;58.80;49.60;;;;;;;;5224332;28;8847;-71
2022/03/19 05:51:16;;;;;;;;;39.00;37.60;;;;;;;;5224893;28;8797;-71
2022/03/19 05:53:47;;;;;;;;;41.60;40.40;;;;;;;;5208012;28;8785;-70
2022/03/19 05:56:18;;;;;;;;;34.80;33.20;;;;;;;;5224301;28;8800;-71
2022/03/19 05:59:07;;;;;;;;;36.00;34.60;;;;;;;;5224684;28;8799;-71
2022/03/19 06:01:41;;;;;;;;;42.75;40.00;;;;;;;;5191610;28;9486;-72
2022/03/19 06:04:13;;;;;;;;;26.60;25.20;;;;;;;;5225577;28;11522;-72
2022/03/19 06:06:44;;;;;;;;;29.80;27.00;;;;;;;;5224141;28;9485;-73
2022/03/19 06:09:15;;;;;;;;;28.00;27.80;;;;;;;;5225853;28;8936;-72
2022/03/19 06:11:46;;;;;;;;;27.00;26.80;;;;;;;;5207703;28;8916;-72
2022/03/19 06:14:17;;;;;;;;;29.40;29.40;;;;;;;;5205488;28;8794;-73
2022/03/19 06:16:49;;;;;;;;;24.50;23.25;;;;;;;;5222208;28;8805;-72
2022/03/19 06:19:20;;;;;;;;;23.20;22.00;;;;;;;;5206588;28;10190;-72
2022/03/19 06:21:51;;;;;;;;;21.60;19.40;;;;;;;;5219284;28;8814;-72
2022/03/19 06:24:23;;;;;;;;;24.00;23.20;;;;;;;;5200130;28;8823;-72
2022/03/19 06:26:54;;;;;;;;;19.40;19.00;;;;;;;;5190531;28;8818;-72
2022/03/19 06:29:25;;;;;;;;;21.20;21.20;;;;;;;;5223828;28;8805;-71
2022/03/19 06:31:56;;;;;;;;;24.40;23.60;;;;;;;;5223905;28;8871;-71
2022/03/19 06:34:30;;;;;;;;;24.60;22.60;;;;;;;;5204037;28;8796;-71
2022/03/19 06:37:20;;;;;;;;;26.00;26.00;;;;;;;;5223584;28;9523;-72
2022/03/19 06:40:09;;;;;;;;;22.80;21.60;;;;;;;;5215338;28;8790;-72
2022/03/19 06:42:41;;;;;;;;;15.60;15.60;;;;;;;;5223408;28;8920;-71
2022/03/19 06:45:12;;;;;;;;;21.60;21.40;;;;;;;;5202580;28;8926;-72
2022/03/19 06:47:43;;;;;;;;;23.80;21.80;;;;;;;;5223249;28;9705;-71
2022/03/19 06:50:16;;;;;;;;;21.40;21.20;;;;;;;;5220141;28;8930;-71
2022/03/19 06:52:48;;;;;;;;;22.20;20.60;;;;;;;;5209310;28;8817;-71
2022/03/19 06:55:19;;;;;;;;;18.00;17.40;;;;;;;;5206811;28;8800;-72
2022/03/19 06:57:50;;;;;;;;;11.80;11.80;;;;;;;;5207297;28;8845;-71
2022/03/19 07:00:21;;;;;;;;;19.50;19.50;;;;;;;;5227348;28;8790;-71
2022/03/19 07:02:54;;;;;;;;;16.40;15.60;;;;;;;;5230401;28;10789;-71
2022/03/19 07:05:26;;;;;;;;;17.20;17.20;;;;;;;;5241594;28;8797;-71
2022/03/19 07:07:59;;;;;;;;;111.50;99.00;;;;;;;;5194754;28;8790;-72
2022/03/19 07:10:30;;;;;;;;;120.75;105.50;;;;;;;;5226565;28;8833;-71
2022/03/19 07:13:02;;;;;;;;;71.40;60.20;;;;;;;;5227205;28;8793;-72
2022/03/19 07:15:33;;;;;;;;;33.00;32.40;;;;;;;;5213225;28;8958;-72
2022/03/19 07:18:04;;;;;;;;;39.00;37.20;;;;;;;;5226318;28;8891;-72
2022/03/19 07:20:36;;;;;;;;;91.80;75.80;;;;;;;;5226974;28;8809;-72
2022/03/19 07:23:07;;;;;;;;;81.60;64.60;;;;;;;;5226203;28;8795;-72
2022/03/19 07:25:39;;;;;;;;;39.80;38.40;;;;;;;;5227671;28;8945;-74
2022/03/19 07:28:12;;;;;;;;;36.60;35.80;;;;;;;;5194343;28;8813;-72
2022/03/19 07:30:43;;;;;;;;;59.00;49.40;;;;;;;;5210915;28;8957;-71
2022/03/19 07:33:14;;;;;;;;;117.25;107.50;;;;;;;;5210797;28;9512;-72
2022/03/19 07:35:46;;;;;;;;;77.20;59.00;;;;;;;;5227163;28;9501;-71
2022/03/19 07:38:17;;;;;;;;;52.00;44.40;;;;;;;;5215526;28;8807;-70
2022/03/19 07:43:39;;;;;;;;;55.40;47.20;;;;;;;;5248255;28;8875;-72
2022/03/19 07:46:11;;;;;;;;;66.00;54.80;;;;;;;;5249027;28;8836;-70
2022/03/19 07:48:42;;;;;;;;;55.80;46.00;;;;;;;;5248656;28;8799;-74
2022/03/19 07:51:14;;;;;;;;;41.00;37.20;;;;;;;;5232032;28;8755;-74
2022/03/19 07:53:45;;;;;;;;;38.20;36.40;;;;;;;;5231260;28;8798;-74
2022/03/19 07:56:16;;;;;;;;;73.60;61.20;;;;;;;;5226758;28;8810;-73
2022/03/19 07:58:50;;;;;;;;;51.60;43.40;;;;;;;;5211387;28;8829;-73
2022/03/19 08:01:21;;;;;;;;;57.00;48.00;;;;;;;;5209503;28;9532;-73
2022/03/19 08:03:52;;;;;;;;;41.25;39.00;;;;;;;;5225635;28;8814;-73
2022/03/19 08:06:23;;;;;;;;;46.00;41.60;;;;;;;;5210358;28;10293;-74
2022/03/19 08:08:54;;;;;;;;;76.00;61.75;;;;;;;;5226722;28;8916;-74
2022/03/19 08:11:25;;;;;;;;;54.25;43.25;;;;;;;;5209862;28;11648;-73
2022/03/19 08:13:56;;;;;;;;;51.75;42.50;;;;;;;;5226348;28;8932;-76
2022/03/19 08:16:27;;;;;;;;;61.20;51.00;;;;;;;;5209762;28;11794;-74
2022/03/19 08:18:58;;;;;;;;;71.20;54.00;;;;;;;;5226152;28;8932;-73
2022/03/19 08:21:30;;;;;;;;;22.25;21.00;;;;;;;;5227719;28;8861;-74
2022/03/19 08:24:01;;;;;;;;;26.80;26.80;;;;;;;;5242688;28;11470;-74
2022/03/19 08:26:52;;;;;;;;;27.80;26.40;;;;;;;;5226142;28;8847;-74
2022/03/19 08:29:25;;;;;;;;;30.00;29.20;;;;;;;;5226544;28;9565;-76
2022/03/19 08:31:56;;;;;;;;;63.60;52.80;;;;;;;;5227296;28;8785;-73
2022/03/19 08:34:27;;;;;;;;;53.50;43.50;;;;;;;;5205336;28;8835;-73
2022/03/19 08:36:58;;;;;;;;;15.80;15.80;;;;;;;;5189392;28;11551;-73
2022/03/19 08:42:37;;;;;;;;;17.00;16.00;;;;;;;;5222209;28;8795;-75
2022/03/19 08:45:09;;;;;;;;;42.20;40.60;;;;;;;;5206160;28;8808;-73
2022/03/19 08:47:40;;;;;;;;;48.20;43.80;;;;;;;;5188790;28;8788;-75
2022/03/19 08:50:11;;;;;;;;;13.60;13.60;;;;;;;;5222212;28;9523;-74
2022/03/19 08:52:45;;;;;;;;;13.80;13.80;;;;;;;;5189734;28;8780;-75
2022/03/19 08:55:16;;;;;;;;;22.20;22.20;;;;;;;;5222776;28;8812;-74
2022/03/19 08:57:47;;;;;;;;;19.00;18.40;;;;;;;;5220953;28;9577;-74
2022/03/19 09:00:18;;;;;;;;;23.00;22.20;;;;;;;;5205519;28;8808;-74
2022/03/19 09:02:49;;;;;;;;;18.00;17.20;;;;;;;;5205215;28;8903;-73
2022/03/19 09:05:20;;;;;;;;;9.60;9.60;;;;;;;;5204951;28;9562;-74
2022/03/19 09:07:51;;;;;;;;;14.40;14.40;;;;;;;;5221681;28;8838;-74
2022/03/19 09:10:22;;;;;;;;;10.50;10.25;;;;;;;;5221988;28;8784;-75
2022/03/19 09:12:55;;;;;;;;;12.80;12.80;;;;;;;;5225037;28;9280;-74
2022/03/19 09:15:26;;;;;;;;;5.20;5.20;;;;;;;;5225398;28;8798;-74
2022/03/19 09:17:58;;;;;;;;;8.00;8.00;;;;;;;;5225894;28;8904;-73
2022/03/19 09:20:29;;;;;;;;;4.00;4.00;;;;;;;;5226105;28;9531;-73
2022/03/19 09:23:02;;;;;;;;;6.50;6.50;;;;;;;;5225096;28;8799;-74
2022/03/19 09:25:33;;;;;;;;;6.40;6.40;;;;;;;;5208532;28;10586;-74
2022/03/19 09:28:04;;;;;;;;;9.00;9.00;;;;;;;;5208700;28;8841;-74
2022/03/19 09:30:35;;;;;;;;;9.60;9.60;;;;;;;;5192124;28;9502;-74
2022/03/19 09:33:07;;;;;;;;;7.40;7.40;;;;;;;;5192796;28;8810;-74
2022/03/19 09:35:38;;;;;;;;;9.80;9.80;;;;;;;;5191617;28;8820;-75
2022/03/19 09:38:09;;;;;;;;;19.60;19.60;;;;;;;;5224881;28;9528;-74
2022/03/19 09:40:41;;;;;;;;;7.00;7.00;;;;;;;;5208451;28;8844;-73
2022/03/19 09:43:12;;;;;;;;;4.80;4.80;;;;;;;;5208405;28;9639;-73
2022/03/19 09:45:44;;;;;;;;;8.80;8.60;;;;;;;;5208260;28;8916;-72
2022/03/19 09:48:34;;;;;;;;;15.00;15.00;;;;;;;;5209717;28;8809;-73
2022/03/19 09:51:07;;;;;;;;;18.20;18.00;;;;;;;;5224704;28;8871;-73
2022/03/19 09:53:56;;;;;;;;;29.60;29.60;;;;;;;;5253665;28;8920;-72
2022/03/19 09:56:27;;;;;;;;;39.75;38.00;;;;;;;;5208757;28;8904;-73
2022/03/19 09:58:58;;;;;;;;;17.40;17.40;;;;;;;;5241074;28;11596;-73
2022/03/19 10:01:31;;;;;;;;;10.20;10.20;;;;;;;;5258065;28;8801;-72
2022/03/19 10:04:03;;;;;;;;;16.00;16.00;;;;;;;;5225159;28;8801;-74
2022/03/19 10:09:40;;;;;;;;;7.60;6.00;;;;;;;;5207842;28;8790;-73
2022/03/19 10:12:22;;;;;;;;;13.80;13.60;;;;;;;;5207762;28;8778;-74
2022/03/19 10:14:54;;;;;;;;;15.00;15.00;;;;;;;;5225065;28;8805;-74
2022/03/19 10:17:32;;;;;;;;;23.80;23.80;;;;;;;;5224171;28;9006;-73
2022/03/19 10:20:11;;;;;;;;;21.60;20.40;;;;;;;;5224955;28;8985;-73
2022/03/19 10:22:43;;;;;;;;;28.80;27.80;;;;;;;;5227560;28;8782;-74
2022/03/19 10:25:18;;;;;;;;;23.60;23.60;;;;;;;;5206732;28;8842;-74
2022/03/19 10:28:11;;;;;;;;;28.40;25.00;;;;;;;;5204724;28;8812;-74
2022/03/19 10:30:42;;;;;;;;;33.80;31.20;;;;;;;;5224044;28;8827;-74
2022/03/19 10:33:31;;;;;;;;;30.20;28.60;;;;;;;;5217777;28;8800;-75
2022/03/19 10:36:07;;;;;;;;;26.25;26.25;;;;;;;;5214338;28;8808;-75
2022/03/19 10:38:42;;;;;;;;;25.20;24.40;;;;;;;;5187004;28;12315;-74
2022/03/19 10:41:35;;;;;;;;;25.60;25.20;;;;;;;;5203495;28;8803;-75
2022/03/19 10:44:14;;;;;;;;;19.60;19.40;;;;;;;;5203695;28;8829;-74
2022/03/19 10:47:02;;;;;;;;;19.20;19.20;;;;;;;;5207490;28;8788;-74
2022/03/19 10:49:32;;;;;;;;;23.40;23.00;;;;;;;;5223996;28;8883;-74
2022/03/19 10:52:07;;;;;;;;;34.20;33.40;;;;;;;;5207798;28;8815;-74
2022/03/19 10:54:39;;;;;;;;;18.20;18.20;;;;;;;;5224153;28;8912;-73
2022/03/19 10:57:10;;;;;;;;;13.00;13.00;;;;;;;;5223013;28;8883;-75
2022/03/19 10:59:41;;;;;;;;;24.00;23.60;;;;;;;;5257429;28;8819;-74
2022/03/19 11:02:30;;;;;;;;;33.00;33.00;;;;;;;;5224032;28;8878;-74
2022/03/19 11:05:01;;;;;;;;;27.20;27.00;;;;;;;;5240776;28;8801;-74
2022/03/19 11:07:34;;;;;;;;;13.80;13.80;;;;;;;;5207117;28;8778;-73
2022/03/19 11:10:06;;;;;;;;;16.80;16.80;;;;;;;;5209079;28;8762;-75
2022/03/19 11:12:42;;;;;;;;;20.00;19.20;;;;;;;;5213661;28;8794;-73
2022/03/19 11:15:13;;;;;;;;;18.20;17.80;;;;;;;;5207583;28;8911;-73
2022/03/19 11:17:44;;;;;;;;;13.00;13.00;;;;;;;;5224506;28;9675;-73
2022/03/19 11:20:15;;;;;;;;;3.00;3.00;;;;;;;;5190971;28;9360;-74
2022/03/19 11:22:50;;;;;;;;;35.40;33.00;;;;;;;;5207265;28;8817;-74
2022/03/19 11:25:26;;;;;;;;;17.00;16.60;;;;;;;;5224902;28;8810;-73
2022/03/19 11:27:59;;;;;;;;;8.80;8.80;;;;;;;;5207290;28;8785;-75
2022/03/19 11:30:34;;;;;;;;;13.20;11.80;;;;;;;;5224034;28;8798;-72
2022/03/19 11:33:21;;;;;;;;;12.00;11.80;;;;;;;;5223737;28;9514;-74
2022/03/19 11:36:11;;;;;;;;;22.80;22.20;;;;;;;;5225197;28;8821;-72
2022/03/19 11:38:49;;;;;;;;;21.80;21.80;;;;;;;;5226406;28;8813;-73
2022/03/19 11:41:22;;;;;;;;;16.40;15.20;;;;;;;;5228801;28;8940;-73
2022/03/19 11:44:12;;;;;;;;;13.60;13.40;;;;;;;;5227045;28;8895;-75
2022/03/19 11:47:02;;;;;;;;;7.80;7.20;;;;;;;;5227064;28;8806;-74
2022/03/19 11:49:56;;;;;;;;;10.00;10.00;;;;;;;;5227038;28;8793;-73
2022/03/19 11:52:27;;;;;;;;;24.60;21.60;;;;;;;;5210604;28;8849;-74
2022/03/19 11:55:03;;;;;;;;;27.60;25.40;;;;;;;;5211025;28;8778;-74
2022/03/19 11:57:48;;;;;;;;;28.60;28.60;;;;;;;;5210445;28;8805;-73
2022/03/19 12:00:21;;;;;;;;;31.60;30.20;;;;;;;;5210031;28;8810;-73
2022/03/19 12:03:16;;;;;;;;;12.60;12.60;;;;;;;;5210569;28;8786;-73
2022/03/19 12:05:49;;;;;;;;;8.60;8.60;;;;;;;;5226595;28;8809;-73
2022/03/19 12:08:21;;;;;;;;;7.40;5.80;;;;;;;;5210674;28;8793;-74
2022/03/19 12:11:16;;;;;;;;;20.00;19.00;;;;;;;;5226639;28;8798;-73
2022/03/19 12:13:49;;;;;;;;;11.20;11.20;;;;;;;;5226741;28;8774;-74
2022/03/19 12:16:40;;;;;;;;;8.00;8.00;;;;;;;;5226333;28;8806;-73
2022/03/19 12:19:11;;;;;;;;;19.20;16.60;;;;;;;;5188940;28;8843;-74
2022/03/19 12:21:44;;;;;;;;;13.00;12.20;;;;;;;;5189331;28;8819;-73
2022/03/19 12:24:35;;;;;;;;;24.20;23.40;;;;;;;;5247415;28;8892;-73
2022/03/19 12:27:06;;;;;;;;;24.20;22.00;;;;;;;;5243105;28;8790;-74
2022/03/19 12:29:37;;;;;;;;;38.00;34.75;;;;;;;;5226291;28;8823;-74
2022/03/19 12:32:07;;;;;;;;;7.20;7.00;;;;;;;;5209393;28;8904;-73
2022/03/19 12:34:58;;;;;;;;;19.80;19.80;;;;;;;;5216978;28;8886;-73
2022/03/19 12:37:29;;;;;;;;;14.40;14.20;;;;;;;;5245330;28;8778;-73
2022/03/19 12:40:02;;;;;;;;;11.40;9.60;;;;;;;;5211949;28;8839;-74
2022/03/19 12:42:34;;;;;;;;;8.80;8.80;;;;;;;;5222072;28;8804;-74
2022/03/19 12:45:05;;;;;;;;;12.40;12.40;;;;;;;;5208911;28;8802;-73
2022/03/19 12:47:36;;;;;;;;;7.20;7.20;;;;;;;;5227464;28;8821;-74
2022/03/19 12:50:07;;;;;;;;;9.00;9.00;;;;;;;;5209373;28;8786;-73
2022/03/19 12:52:57;;;;;;;;;7.40;7.40;;;;;;;;5227471;28;9497;-72
2022/03/19 12:55:30;;;;;;;;;8.00;7.60;;;;;;;;5204879;28;8804;-73
2022/03/19 12:58:01;;;;;;;;;7.80;7.40;;;;;;;;5221806;28;8844;-73
2022/03/19 13:00:34;;;;;;;;;8.00;8.00;;;;;;;;5205464;28;8772;-74
2022/03/19 13:03:05;;;;;;;;;9.60;9.60;;;;;;;;5205232;28;8811;-74
2022/03/19 13:05:54;;;;;;;;;8.00;8.00;;;;;;;;5222541;28;8883;-74
2022/03/19 13:08:25;;;;;;;;;10.20;10.20;;;;;;;;5192528;28;8781;-74
2022/03/19 13:11:16;;;;;;;;;16.00;16.00;;;;;;;;5211729;28;8786;-75
2022/03/19 13:13:47;;;;;;;;;27.60;26.00;;;;;;;;5208843;28;9532;-73
2022/03/19 13:16:29;;;;;;;;;18.60;18.20;;;;;;;;5208526;28;8867;-74
2022/03/19 13:19:04;;;;;;;;;28.80;27.80;;;;;;;;5212964;28;8909;-74
2022/03/19 13:21:36;;;;;;;;;39.80;38.40;;;;;;;;5195972;28;8813;-75
2022/03/19 13:24:13;;;;;;;;;44.40;38.60;;;;;;;;5203844;28;8817;-75
2022/03/19 13:26:44;;;;;;;;;36.80;35.60;;;;;;;;5205061;28;9636;-74
2022/03/19 13:29:25;;;;;;;;;49.20;44.60;;;;;;;;5206929;28;8886;-74
2022/03/19 13:31:57;;;;;;;;;51.60;41.40;;;;;;;;5192747;28;8818;-75
2022/03/19 13:34:34;;;;;;;;;47.60;41.80;;;;;;;;5212050;28;8872;-74
2022/03/19 13:37:12;;;;;;;;;64.00;50.40;;;;;;;;5209537;28;8802;-74
2022/03/19 13:40:04;;;;;;;;;66.40;50.80;;;;;;;;5224307;28;8832;-74
2022/03/19 13:42:38;;;;;;;;;64.20;52.20;;;;;;;;5205885;28;8992;-74
2022/03/19 13:45:13;;;;;;;;;39.00;36.20;;;;;;;;5212731;28;9538;-73
2022/03/19 13:47:50;;;;;;;;;48.80;43.60;;;;;;;;5230501;28;8852;-72
2022/03/19 13:50:21;;;;;;;;;52.40;44.60;;;;;;;;5214911;28;9616;-74
2022/03/19 13:52:57;;;;;;;;;58.75;48.50;;;;;;;;5245372;28;8776;-74
2022/03/19 13:55:27;;;;;;;;;47.20;44.80;;;;;;;;5215301;28;11564;-74
2022/03/19 13:58:17;;;;;;;;;42.00;37.00;;;;;;;;5224259;28;8818;-74
2022/03/19 14:00:48;;;;;;;;;55.00;44.40;;;;;;;;5228546;28;9546;-74
2022/03/19 14:03:23;;;;;;;;;56.80;48.60;;;;;;;;5212020;28;9575;-75
2022/03/19 14:05:54;;;;;;;;;54.20;45.60;;;;;;;;5215006;28;8801;-74
2022/03/19 14:08:25;;;;;;;;;61.80;51.20;;;;;;;;5208097;28;8790;-74
2022/03/19 14:10:56;;;;;;;;;54.40;44.60;;;;;;;;5191414;28;8796;-74
2022/03/19 14:13:48;;;;;;;;;62.60;51.40;;;;;;;;5224146;28;8785;-74
2022/03/19 14:16:19;;;;;;;;;62.80;53.40;;;;;;;;5207800;28;8797;-73
2022/03/19 14:18:51;;;;;;;;;67.00;53.75;;;;;;;;5243886;28;8815;-74
2022/03/19 14:21:22;;;;;;;;;71.80;58.20;;;;;;;;5224258;28;8817;-74
2022/03/19 14:23:53;;;;;;;;;63.80;54.20;;;;;;;;5212684;28;8793;-75
2022/03/19 14:26:24;;;;;;;;;61.60;49.40;;;;;;;;5190780;28;8833;-73
2022/03/19 14:28:57;;;;;;;;;66.75;54.00;;;;;;;;5191151;28;8819;-74
2022/03/19 14:31:47;;;;;;;;;69.00;54.40;;;;;;;;5224121;28;9918;-73
2022/03/19 14:34:18;;;;;;;;;67.50;54.25;;;;;;;;5206607;28;8818;-74
2022/03/19 14:36:49;;;;;;;;;55.25;46.25;;;;;;;;5206211;28;8814;-73
2022/03/19 14:39:20;;;;;;;;;57.00;47.75;;;;;;;;5257879;28;11683;-73
2022/03/19 14:41:51;;;;;;;;;43.75;37.00;;;;;;;;5244631;28;8826;-72
2022/03/19 14:44:41;;;;;;;;;39.20;36.20;;;;;;;;5230493;28;8904;-72
2022/03/19 14:47:12;;;;;;;;;46.80;43.00;;;;;;;;5200475;28;8832;-73
2022/03/19 14:49:43;;;;;;;;;58.40;50.00;;;;;;;;5238332;28;8810;-72
2022/03/19 14:52:14;;;;;;;;;44.00;37.50;;;;;;;;5226143;28;8801;-72
2022/03/19 14:54:45;;;;;;;;;34.00;33.25;;;;;;;;5220580;28;11545;-72
2022/03/19 14:57:16;;;;;;;;;29.75;28.75;;;;;;;;5223652;28;11501;-72
2022/03/19 14:59:50;;;;;;;;;33.40;32.80;;;;;;;;5206809;28;9825;-73
2022/03/19 15:02:21;;;;;;;;;51.80;40.20;;;;;;;;5207361;28;8818;-72
2022/03/19 15:04:53;;;;;;;;;59.75;48.50;;;;;;;;5229235;28;8942;-72
2022/03/19 15:07:26;;;;;;;;;37.40;35.20;;;;;;;;5244317;28;11514;-72
2022/03/19 15:09:57;;;;;;;;;55.00;43.80;;;;;;;;5211433;28;8763;-71
2022/03/19 15:12:29;;;;;;;;;57.20;47.60;;;;;;;;5245307;28;8991;-72
2022/03/19 15:15:10;;;;;;;;;45.40;39.80;;;;;;;;5232138;28;8763;-72
2022/03/19 15:17:41;;;;;;;;;45.60;41.00;;;;;;;;5231787;28;9662;-72
2022/03/19 15:20:12;;;;;;;;;40.60;36.00;;;;;;;;5240805;28;9650;-72
2022/03/19 15:22:43;;;;;;;;;51.00;44.40;;;;;;;;5221442;28;8820;-72
2022/03/19 15:25:14;;;;;;;;;54.20;45.60;;;;;;;;5172082;28;8874;-73
2022/03/19 15:27:45;;;;;;;;;62.40;50.40;;;;;;;;5188740;28;8804;-72